createdAt,value
2022-09-28T05:04:51.697Z,996.3
2022-09-28T05:14:33.603Z,996.2
2022-09-28T05:19:27.004Z,996.09
2022-09-28T05:24:19.591Z,996.05
2022-09-28T05:29:11.953Z,996.07
2022-09-28T05:34:04.489Z,996
2022-09-28T05:43:51.160Z,995.88
2022-09-28T05:53:35.955Z,995.84
2022-09-28T06:03:16.114Z,995.77
2022-09-28T06:13:01.983Z,995.76
2022-09-28T06:17:54.212Z,995.76
2022-09-28T06:22:46.759Z,995.77
2022-09-28T06:27:39.014Z,995.75
2022-09-28T06:32:31.571Z,995.76
2022-09-28T06:37:24.188Z,995.72
2022-09-28T06:42:16.735Z,995.73
2022-09-28T06:47:09.157Z,995.69
2022-09-28T06:52:01.730Z,995.63
2022-09-28T06:56:54.287Z,995.6
2022-09-28T07:01:46.994Z,995.61
2022-09-28T07:06:39.462Z,995.68
2022-09-28T07:11:31.702Z,995.69
2022-09-28T07:16:27.066Z,995.57
2022-09-28T07:21:27.003Z,995.55
2022-09-28T07:26:09.346Z,995.59
2022-09-28T07:31:01.398Z,995.57
2022-09-28T07:35:53.841Z,995.6
2022-09-28T07:40:48.255Z,995.66
2022-09-28T07:45:39.033Z,995.68
2022-09-28T07:50:31.361Z,995.66
2022-09-28T07:55:23.924Z,995.76
2022-09-28T08:00:16.593Z,995.78
2022-09-28T08:05:08.988Z,995.82
2022-09-28T08:10:01.840Z,995.85
2022-09-28T08:14:54.196Z,995.96
2022-09-28T08:19:46.936Z,995.95
2022-09-28T08:24:39.536Z,995.96
2022-09-28T08:29:32.205Z,995.95
2022-09-28T08:34:24.802Z,995.98
2022-09-28T08:39:17.326Z,996.11
2022-09-28T08:44:09.854Z,996.11
2022-09-28T08:49:20.918Z,996.14
2022-09-28T08:53:54.757Z,996.2
2022-09-28T08:58:47.157Z,996.25
2022-09-28T09:03:39.552Z,996.27
2022-09-28T09:08:32.035Z,996.3
2022-09-28T09:13:24.394Z,996.31
2022-09-28T09:18:19.827Z,996.37
2022-09-28T09:23:09.328Z,996.41
2022-09-28T09:28:01.812Z,996.46
2022-09-28T09:32:54.349Z,996.53
2022-09-28T09:37:46.771Z,996.49
2022-09-28T09:42:38.902Z,996.54
2022-09-28T09:47:31.128Z,996.58
2022-09-28T09:52:23.517Z,996.58
2022-09-28T09:57:16.015Z,996.69
2022-09-28T10:02:11.599Z,996.79
2022-09-28T10:07:00.813Z,996.81
2022-09-28T10:11:53.643Z,996.84
2022-09-28T10:16:46.266Z,996.9
2022-09-28T10:21:38.153Z,997.08
2022-09-28T10:26:30.498Z,997.12
2022-09-28T10:31:22.972Z,997.11
2022-09-28T10:36:15.386Z,997.16
2022-09-28T10:41:07.580Z,997.26
2022-09-28T10:46:00.063Z,997.33
2022-09-28T10:50:52.169Z,997.32
2022-09-28T10:55:44.724Z,997.39
2022-09-28T11:00:37.230Z,997.45
2022-09-28T11:05:29.826Z,997.47
2022-09-28T11:10:22.292Z,997.49
2022-09-28T11:15:14.791Z,997.48
2022-09-28T11:20:07.043Z,997.43
2022-09-28T11:24:59.271Z,997.42
2022-09-28T11:29:51.712Z,997.42
2022-09-28T11:34:58.440Z,997.53
2022-09-28T11:39:36.531Z,997.51
2022-09-28T11:44:30.843Z,997.62
2022-09-28T11:49:21.765Z,997.59
2022-09-28T11:54:14.605Z,997.66
2022-09-28T11:59:07.157Z,997.6
2022-09-28T12:03:58.973Z,997.63
2022-09-28T12:08:51.610Z,997.62
2022-09-28T12:13:44.044Z,997.68
2022-09-28T12:18:36.599Z,997.64
2022-09-28T12:23:28.949Z,997.74
2022-09-28T12:28:21.407Z,997.77
2022-09-28T12:33:13.791Z,997.74
2022-09-28T12:38:00.249Z,997.82
2022-09-28T12:42:56.911Z,997.81
2022-09-28T12:47:49.488Z,997.87
2022-09-28T12:57:34.329Z,997.99
2022-09-28T13:02:26.868Z,997.97
2022-09-28T13:07:19.268Z,997.93
2022-09-28T13:12:11.828Z,997.96
2022-09-28T13:17:04.213Z,997.97
2022-09-28T13:26:49.220Z,998.21
2022-09-28T13:31:41.844Z,998.31
2022-09-28T13:36:34.064Z,998.29
2022-09-28T13:41:26.187Z,998.32
2022-09-28T13:46:18.653Z,998.32
2022-09-28T13:51:10.956Z,998.33
2022-09-28T13:56:03.560Z,998.29
2022-09-28T14:05:48.595Z,998.35
2022-09-28T14:15:33.542Z,998.38
2022-09-28T14:25:18.314Z,998.46
2022-09-28T14:35:02.203Z,998.54
2022-09-28T14:39:54.158Z,998.64
2022-09-28T14:44:46.427Z,998.78
2022-09-28T14:49:38.513Z,998.78
2022-09-28T14:54:30.788Z,998.83
2022-09-28T14:59:23.280Z,998.8
2022-09-28T15:04:15.856Z,998.83
2022-09-28T15:09:07.570Z,998.88
2022-09-28T15:14:00.627Z,998.87
2022-09-28T15:18:53.652Z,998.9
2022-09-28T15:23:46.253Z,998.9
2022-09-28T15:28:38.434Z,998.94
2022-09-28T15:33:30.969Z,998.93
2022-09-28T15:38:23.278Z,998.95
2022-09-28T15:43:15.975Z,999.01
2022-09-28T15:48:08.297Z,999.04
2022-09-28T15:53:00.645Z,999.1
2022-09-28T15:57:52.745Z,999.15
2022-09-28T16:02:44.984Z,999.19
2022-09-28T16:07:37.339Z,999.25
2022-09-28T16:12:29.793Z,999.24
2022-09-28T16:17:22.435Z,999.28
2022-09-28T16:22:14.962Z,999.35
2022-09-28T16:27:07.729Z,999.34
2022-09-28T16:32:00.099Z,999.39
2022-09-28T16:36:52.483Z,999.46
2022-09-28T16:41:44.718Z,999.48
2022-09-28T16:46:37.301Z,999.51
2022-09-28T16:51:29.391Z,999.64
2022-09-28T16:56:21.706Z,999.65
2022-09-28T17:01:14.112Z,999.72
2022-09-28T17:06:06.385Z,999.73
2022-09-28T17:11:17.868Z,999.75
2022-09-28T17:15:51.086Z,999.8
2022-09-28T17:20:43.643Z,999.83
2022-09-28T17:25:36.053Z,999.84
2022-09-28T17:30:28.511Z,999.92
2022-09-28T17:35:25.255Z,999.96
2022-09-28T17:40:13.487Z,1000.05
2022-09-28T17:45:06.183Z,1000.04
2022-09-28T17:49:58.632Z,1000.05
2022-09-28T17:54:47.812Z,1000.11
2022-09-28T17:59:41.348Z,1000.18
2022-09-28T18:04:51.074Z,1000.23
2022-09-28T18:09:26.416Z,1000.26
2022-09-28T18:14:19.012Z,1000.32
2022-09-28T18:19:12.314Z,1000.39
2022-09-28T18:24:03.826Z,1000.37
2022-09-28T18:28:56.356Z,1000.42
2022-09-28T18:33:49.109Z,1000.5
2022-09-28T18:43:36.304Z,1000.65
2022-09-28T18:48:26.703Z,1000.64
2022-09-28T18:53:19.380Z,1000.69
2022-09-28T18:58:11.848Z,1000.76
2022-09-28T19:03:04.591Z,1000.8
2022-09-28T19:07:57.751Z,1000.81
2022-09-28T19:12:49.385Z,1000.82
2022-09-28T19:17:41.977Z,1000.86
2022-09-28T19:22:34.487Z,1000.85
2022-09-28T19:27:27.162Z,1000.87
2022-09-28T19:32:19.775Z,1000.95
2022-09-28T19:37:12.618Z,1000.95
2022-09-28T19:42:05.416Z,1000.97
2022-09-28T19:46:58.703Z,1000.94
2022-09-28T19:56:42.691Z,1001.01
2022-09-28T20:01:35.239Z,1001.1
2022-09-28T20:06:27.573Z,1001.18
2022-09-28T20:11:20.246Z,1001.17
2022-09-28T20:16:12.781Z,1001.25
2022-09-28T20:21:05.423Z,1001.28
2022-09-28T20:25:57.987Z,1001.35
2022-09-28T20:30:50.558Z,1001.41
2022-09-28T20:35:43.002Z,1001.46
2022-09-28T20:40:35.772Z,1001.49
2022-09-28T20:45:28.495Z,1001.55
2022-09-28T20:50:21.896Z,1001.59
2022-09-28T20:55:13.449Z,1001.63
2022-09-28T21:00:05.892Z,1001.68
2022-09-28T21:04:59.387Z,1001.7
2022-09-28T21:09:51.695Z,1001.66
2022-09-28T21:14:44.211Z,1001.7
2022-09-28T21:19:36.845Z,1001.78
2022-09-28T21:24:29.541Z,1001.83
2022-09-28T21:29:21.599Z,1001.81
2022-09-28T21:34:14.020Z,1001.89
2022-09-28T21:39:10.183Z,1001.9
2022-09-28T21:43:59.035Z,1001.89
2022-09-28T21:48:51.690Z,1001.89
2022-09-28T21:53:44.323Z,1001.98
2022-09-28T21:58:36.884Z,1001.98
2022-09-28T22:03:29.400Z,1001.95
2022-09-28T22:08:21.978Z,1001.99
2022-09-28T22:13:14.484Z,1001.94
2022-09-28T22:18:07.051Z,1001.95
2022-09-28T22:22:59.538Z,1001.93
2022-09-28T22:27:51.848Z,1001.98
2022-09-28T22:32:44.278Z,1001.97
2022-09-28T22:37:37.079Z,1001.93
2022-09-28T22:42:29.744Z,1001.89
2022-09-28T22:47:22.367Z,1001.96
2022-09-28T22:52:15.041Z,1002.02
2022-09-28T22:57:07.490Z,1002.04
2022-09-28T23:02:00.065Z,1002.07
2022-09-28T23:06:52.423Z,1002.05
2022-09-28T23:11:45.086Z,1001.97
2022-09-28T23:16:37.295Z,1001.99
2022-09-28T23:21:29.915Z,1002.04
2022-09-28T23:26:23.031Z,1002.02
2022-09-28T23:31:15.508Z,1002.04
2022-09-28T23:36:08.033Z,1002.07
2022-09-28T23:41:00.477Z,1002.12
2022-09-28T23:45:53.060Z,1002.07
2022-09-28T23:50:45.483Z,1002.07
2022-09-28T23:55:37.865Z,1002.09
